New Germantown, Pennsylvania
Current Conditions -  °F | °C
As of 6:56 PM on Friday 24 Oct 2014 (Local Time) from KCXY Reporting Station
Clear Clear  
Wind Chill: 61°   Ceiling: Unl
Heat Index: 61°   Visibility: 10mi
Dew Point: 35°   Wind: 8mph
Humidity: 38%   Direction: 270°W
Pressure: 29.9"   Gusts: NA
Location:  40.31°N, 77.57°W
Report Text: KCXY 242256Z 27007KT 10SM CLR 16/02 A2990 RMK AO2 SLP125 T01610017
Loading
Personal Weather Stations






























Interactive Weather Map
Tropical Storm Tracking
New forecast layout! Learn more

10-Day Weather Forecast

Advertisements
Track Severe Weather on mobile